Terminal Aerodrome Forecast
Issued by NWS

Home | Current Version | Previous Version | Text Only | Print | Product List | Glossary On
Versions: 1 2 3 4 5 6 7 8 9 10 11 12 13 14 15 16 17 18 19 20 21 22 23
000
FTUS41 KCAR 270534
TAFBHB
TAF
KBHB 270534Z 2706/2806 02013G23KT 6SM -SN OVC015
     FM270700 02017G27KT 2SM -SN OVC008
     FM270900 03017G27KT 1/2SM SN BLSN OVC005
     FM271100 03020G35KT 1/4SM +SN BLSN VV003
     FM272100 04027G37KT 3/4SM -SN BLSN OVC005
     FM272300 03023G33KT 1 1/2SM -SN BLSN OVC008
      AMD LTD TO CLD VIS AND WIND=

USA.gov is the U.S. government's official web portal to all federal, state and local government web resources and services.